Terminal Aerodrome Forecast
Issued by NWS

Home | Current Version | Previous Version | Graphics & Text | Print | Product List | Glossary On
Versions: 1 2 3 4 5 6 7 8 9 10 11 12 13 14 15 16 17 18
390
FTUS43 KBIS 212339
TAFMOT
TAF
KMOT 212339Z 2200/2224 32009KT P6SM SKC
     FM220700 35008KT P6SM SCT180
     FM221000 36008KT P6SM SCT150 BKN200
     FM221300 36009KT P6SM SCT150 BKN200
     FM221500 01013G18KT P6SM VCSH BKN070 BKN140
     FM221800 01015G23KT P6SM VCSH BKN050 OVC070
     FM222200 01012G17KT P6SM OVC035=

USA.gov is the U.S. government's official web portal to all federal, state and local government web resources and services.